Terminal Aerodrome Forecast
Issued by NWS

Home | Current Version | Previous Version | Graphics & Text | Print | Product List | Glossary On
Versions: 1 2 3 4 5 6 7 8 9 10 11 12 13 14 15 16 17 18 19 20 21 22 23 24 25
000
FTUS43 KGRB 290400 AAA
TAFAUW
TAF AMD
KAUW 290402Z 2904/2924 13007KT P6SM VCSH SCT020 OVC035
     FM290700 12004KT 4SM -SHRA BR SCT012 OVC020
     FM291500 17007KT 5SM -SHRA SCT015 OVC022
      TEMPO 2915/2919 2SM TSRA OVC014CB
     FM292100 19008KT 4SM -SHRA BR BKN018 OVC025=

USA.gov is the U.S. government's official web portal to all federal, state and local government web resources and services.